EJU25R LFST-LEPA
Flight info
| Callsign | EJU25R |
|---|---|
| Flight time | N/A |
| Altitude | FL360 |
| Route | SUL1N SUL Y125 NATOR LUTIX BENOT NEMOS GEVEA INCUS BALSI RETNO TUPOX MTG DIVKO VATIR PIVUS BODEQ VERSO LUNIK LUNI4M |
| Aircraft | A319/M-SDE3FGHIRWY/LB1 |
Departure
| Time | 2026-05-08 07:30 |
|---|---|
| Airport | Strasbourg Airport (LFST) |
Arrival
| Time | N/A |
|---|---|
| Airport | Palma de Mallorca Airport (LEPA) |
| Time | Latitude | Longitude | Altitude | Speed | Heading |
|---|---|---|---|---|---|
| 2026-05-08 07:03 | 48.54395 | 7.62824 | 512 ft | 0 kts | 319° |
| 2026-05-08 07:21 | 48.54393 | 7.62826 | 512 ft | 2 kts | 319° |
| 2026-05-08 07:21 | 48.54376 | 7.62849 | 512 ft | 3 kts | 319° |
| 2026-05-08 07:21 | 48.54359 | 7.62870 | 512 ft | 1 kts | 319° |
| 2026-05-08 07:21 | 48.54344 | 7.62893 | 512 ft | 3 kts | 283° |
| 2026-05-08 07:22 | 48.54348 | 7.62924 | 512 ft | 3 kts | 229° |
| 2026-05-08 07:22 | 48.54359 | 7.62944 | 512 ft | 0 kts | 229° |
| 2026-05-08 07:24 | 48.54354 | 7.62934 | 512 ft | 4 kts | 229° |
| 2026-05-08 07:24 | 48.54331 | 7.62895 | 512 ft | 7 kts | 229° |
| 2026-05-08 07:24 | 48.54293 | 7.62846 | 512 ft | 7 kts | 203° |
| 2026-05-08 07:24 | 48.54236 | 7.62863 | 512 ft | 11 kts | 149° |
| 2026-05-08 07:25 | 48.54156 | 7.62927 | 512 ft | 15 kts | 179° |
| 2026-05-08 07:25 | 48.54073 | 7.62842 | 512 ft | 15 kts | 229° |
| 2026-05-08 07:25 | 48.53921 | 7.62582 | 512 ft | 20 kts | 229° |
| 2026-05-08 07:26 | 48.53816 | 7.62401 | 512 ft | 25 kts | 229° |
| 2026-05-08 07:26 | 48.53690 | 7.62185 | 512 ft | 30 kts | 230° |
| 2026-05-08 07:26 | 48.53555 | 7.61951 | 512 ft | 29 kts | 229° |
| 2026-05-08 07:26 | 48.53419 | 7.61721 | 512 ft | 29 kts | 229° |
| 2026-05-08 07:27 | 48.53320 | 7.61552 | 512 ft | 17 kts | 229° |
| 2026-05-08 07:27 | 48.53252 | 7.61486 | 512 ft | 8 kts | 185° |
| 2026-05-08 07:27 | 48.53250 | 7.61486 | 512 ft | 0 kts | 182° |
| 2026-05-08 07:27 | 48.53233 | 7.61488 | 512 ft | 4 kts | 170° |
| 2026-05-08 07:28 | 48.53197 | 7.61523 | 512 ft | 9 kts | 140° |
| 2026-05-08 07:28 | 48.53154 | 7.61606 | 512 ft | 10 kts | 105° |
| 2026-05-08 07:28 | 48.53180 | 7.61707 | 512 ft | 11 kts | 50° |
| 2026-05-08 07:28 | 48.53184 | 7.61713 | 512 ft | 0 kts | 48° |
| 2026-05-08 07:29 | 48.53203 | 7.61746 | 511 ft | 21 kts | 48° |
| 2026-05-08 07:29 | 48.53486 | 7.62234 | 513 ft | 99 kts | 48° |
| 2026-05-08 07:29 | 48.54082 | 7.63251 | 539 ft | 154 kts | 48° |
| 2026-05-08 07:29 | 48.54800 | 7.64549 | 1016 ft | 165 kts | 49° |
| 2026-05-08 07:30 | 48.55536 | 7.65863 | 1786 ft | 164 kts | 50° |
| 2026-05-08 07:30 | 48.56313 | 7.67234 | 2226 ft | 182 kts | 50° |
| 2026-05-08 07:30 | 48.57188 | 7.68775 | 2588 ft | 205 kts | 50° |
| 2026-05-08 07:30 | 48.58172 | 7.70509 | 2972 ft | 231 kts | 50° |
| 2026-05-08 07:31 | 48.59251 | 7.72412 | 3499 ft | 253 kts | 50° |
| 2026-05-08 07:31 | 48.60434 | 7.74502 | 4334 ft | 263 kts | 50° |
| 2026-05-08 07:31 | 48.61639 | 7.76633 | 5242 ft | 271 kts | 50° |
| 2026-05-08 07:31 | 48.62871 | 7.78817 | 6158 ft | 277 kts | 50° |
| 2026-05-08 07:32 | 48.64126 | 7.81049 | 7079 ft | 281 kts | 50° |
| 2026-05-08 07:32 | 48.65399 | 7.83312 | 7992 ft | 285 kts | 49° |
| 2026-05-08 07:32 | 48.66691 | 7.85607 | 8910 ft | 289 kts | 49° |
| 2026-05-08 07:32 | 48.68006 | 7.87941 | 9818 ft | 294 kts | 49° |
| 2026-05-08 07:33 | 48.69350 | 7.90330 | 10446 ft | 308 kts | 49° |
| 2026-05-08 07:33 | 48.70787 | 7.92891 | 10752 ft | 332 kts | 49° |
| 2026-05-08 07:33 | 48.72320 | 7.95659 | 11034 ft | 355 kts | 52° |
| 2026-05-08 07:33 | 48.73391 | 7.99057 | 11551 ft | 366 kts | 78° |
| 2026-05-08 07:34 | 48.73362 | 8.02897 | 12256 ft | 371 kts | 104° |
| 2026-05-08 07:34 | 48.72234 | 8.06376 | 12978 ft | 373 kts | 130° |
| 2026-05-08 07:34 | 48.70222 | 8.08805 | 13708 ft | 374 kts | 156° |
| 2026-05-08 07:34 | 48.67775 | 8.10138 | 14395 ft | 376 kts | 165° |
| 2026-05-08 07:35 | 48.65320 | 8.11550 | 15039 ft | 382 kts | 155° |
| 2026-05-08 07:35 | 48.63162 | 8.13912 | 15677 ft | 390 kts | 135° |
| 2026-05-08 07:35 | 48.61432 | 8.17080 | 16359 ft | 394 kts | 129° |
| 2026-05-08 07:35 | 48.59788 | 8.20403 | 17026 ft | 397 kts | 127° |
| 2026-05-08 07:36 | 48.58174 | 8.23806 | 17676 ft | 401 kts | 127° |
| 2026-05-08 07:36 | 48.56552 | 8.27253 | 18313 ft | 405 kts | 127° |
| 2026-05-08 07:36 | 48.54800 | 8.30587 | 18865 ft | 407 kts | 137° |
| 2026-05-08 07:36 | 48.52538 | 8.33112 | 19434 ft | 407 kts | 154° |
| 2026-05-08 07:37 | 48.49893 | 8.34531 | 19993 ft | 405 kts | 172° |
| 2026-05-08 07:37 | 48.47099 | 8.34708 | 20546 ft | 403 kts | 189° |
| 2026-05-08 07:37 | 48.44408 | 8.33639 | 21095 ft | 402 kts | 205° |
| 2026-05-08 07:37 | 48.41915 | 8.31743 | 21656 ft | 403 kts | 209° |
| 2026-05-08 07:38 | 48.39423 | 8.29799 | 22200 ft | 406 kts | 209° |
| 2026-05-08 07:38 | 48.36912 | 8.27851 | 22731 ft | 408 kts | 209° |
| 2026-05-08 07:38 | 48.34384 | 8.25897 | 23252 ft | 411 kts | 208° |
| 2026-05-08 07:38 | 48.31842 | 8.23940 | 23746 ft | 413 kts | 208° |
| 2026-05-08 07:39 | 48.29283 | 8.21970 | 24174 ft | 415 kts | 208° |
| 2026-05-08 07:39 | 48.26714 | 8.19990 | 24596 ft | 417 kts | 208° |
| 2026-05-08 07:39 | 48.24134 | 8.17999 | 25020 ft | 419 kts | 208° |
| 2026-05-08 07:39 | 48.21540 | 8.15996 | 25432 ft | 421 kts | 208° |
| 2026-05-08 07:40 | 48.18930 | 8.13986 | 25843 ft | 424 kts | 208° |
| 2026-05-08 07:40 | 48.16307 | 8.11968 | 26238 ft | 426 kts | 208° |
| 2026-05-08 07:40 | 48.13669 | 8.09943 | 26640 ft | 428 kts | 208° |
| 2026-05-08 07:40 | 48.11019 | 8.07915 | 27032 ft | 430 kts | 208° |
| 2026-05-08 07:41 | 48.08354 | 8.05883 | 27413 ft | 432 kts | 208° |
| 2026-05-08 07:41 | 48.05675 | 8.03844 | 27765 ft | 434 kts | 208° |
| 2026-05-08 07:41 | 48.02981 | 8.01794 | 28126 ft | 436 kts | 208° |
| 2026-05-08 07:41 | 48.00275 | 7.99733 | 28486 ft | 439 kts | 208° |
| 2026-05-08 07:42 | 47.97557 | 7.97661 | 28849 ft | 440 kts | 208° |
| 2026-05-08 07:42 | 47.94829 | 7.95583 | 29198 ft | 442 kts | 208° |
| 2026-05-08 07:42 | 47.92094 | 7.93500 | 29594 ft | 442 kts | 208° |
| 2026-05-08 07:42 | 47.89419 | 7.91467 | 30087 ft | 441 kts | 208° |
| 2026-05-08 07:43 | 47.86698 | 7.89402 | 30512 ft | 439 kts | 208° |
| 2026-05-08 07:43 | 47.83985 | 7.87344 | 30928 ft | 438 kts | 208° |
| 2026-05-08 07:43 | 47.81278 | 7.85298 | 31333 ft | 437 kts | 208° |
| 2026-05-08 07:43 | 47.78570 | 7.83259 | 31742 ft | 436 kts | 208° |
| 2026-05-08 07:44 | 47.75870 | 7.81233 | 32140 ft | 436 kts | 208° |
| 2026-05-08 07:44 | 47.73172 | 7.79207 | 32550 ft | 435 kts | 208° |
| 2026-05-08 07:44 | 47.70478 | 7.77185 | 32956 ft | 434 kts | 207° |
| 2026-05-08 07:44 | 47.67792 | 7.75173 | 33380 ft | 433 kts | 207° |
| 2026-05-08 07:45 | 47.65103 | 7.73160 | 33786 ft | 433 kts | 207° |
| 2026-05-08 07:45 | 47.62428 | 7.71152 | 34173 ft | 432 kts | 207° |
| 2026-05-08 07:45 | 47.59751 | 7.69141 | 34511 ft | 432 kts | 207° |
| 2026-05-08 07:45 | 47.57081 | 7.67137 | 34849 ft | 431 kts | 208° |
| 2026-05-08 07:46 | 47.54409 | 7.65133 | 35039 ft | 432 kts | 208° |
| 2026-05-08 07:46 | 47.49060 | 7.61135 | 35082 ft | 431 kts | 208° |
| 2026-05-08 07:47 | 47.43718 | 7.57165 | 35083 ft | 431 kts | 208° |
| 2026-05-08 07:47 | 47.38378 | 7.53205 | 35079 ft | 430 kts | 208° |
| 2026-05-08 07:48 | 47.33046 | 7.49251 | 35082 ft | 429 kts | 208° |
| 2026-05-08 07:48 | 47.27712 | 7.45315 | 35084 ft | 429 kts | 208° |
| 2026-05-08 07:49 | 47.22391 | 7.41399 | 35081 ft | 428 kts | 208° |
| 2026-05-08 07:49 | 47.17234 | 7.37101 | 35085 ft | 426 kts | 218° |
| 2026-05-08 07:50 | 47.13155 | 7.30872 | 35085 ft | 425 kts | 232° |
| 2026-05-08 07:50 | 47.09659 | 7.24401 | 35083 ft | 425 kts | 231° |
| 2026-05-08 07:51 | 47.05967 | 7.17637 | 35079 ft | 426 kts | 231° |
| 2026-05-08 07:51 | 47.02270 | 7.10876 | 35065 ft | 426 kts | 231° |
| 2026-05-08 07:52 | 46.98572 | 7.04111 | 35082 ft | 426 kts | 231° |
| 2026-05-08 07:52 | 46.97900 | 7.02882 | 35080 ft | 426 kts | 231° |